createdAt,value
2023-01-07T00:00:14.755Z,6.05
2023-01-07T00:01:22.306Z,5.72
2023-01-07T00:02:24.006Z,7.10
2023-01-07T00:03:25.755Z,6.57
2023-01-07T00:04:27.369Z,6.80
2023-01-07T00:05:29.017Z,6.70
2023-01-07T00:06:33.404Z,6.55
2023-01-07T00:07:35.066Z,6.13
2023-01-07T00:08:38.209Z,7.70
2023-01-07T00:09:39.884Z,6.28
2023-01-07T00:10:41.494Z,6.32
2023-01-07T00:11:43.190Z,5.88
2023-01-07T00:12:44.816Z,5.88
2023-01-07T00:13:48.559Z,5.88
2023-01-07T00:14:50.129Z,7.18
2023-01-07T00:15:51.827Z,6.85
2023-01-07T00:16:53.471Z,6.68
2023-01-07T00:17:55.099Z,6.30
2023-01-07T00:18:58.635Z,6.63
2023-01-07T00:20:00.220Z,5.93
2023-01-07T00:21:04.178Z,6.45
2023-01-07T00:22:05.782Z,6.18
2023-01-07T00:23:07.377Z,6.20
2023-01-07T00:24:10.600Z,6.32
2023-01-07T00:25:12.241Z,8.43
2023-01-07T00:26:19.360Z,7.13
2023-01-07T00:27:21.572Z,7.70
2023-01-07T00:28:23.225Z,5.90
2023-01-07T00:29:24.774Z,6.00
2023-01-07T00:30:26.414Z,7.50
2023-01-07T00:31:30.498Z,5.80
2023-01-07T00:32:59.365Z,7.70
2023-01-07T00:34:01.658Z,6.50
2023-01-07T00:35:04.168Z,7.30
2023-01-07T00:36:08.582Z,6.65
2023-01-07T00:37:28.622Z,6.00
2023-01-07T00:38:30.691Z,6.50
2023-01-07T00:39:32.284Z,6.55
2023-01-07T00:40:35.538Z,6.63
2023-01-07T00:41:37.571Z,6.53
2023-01-07T00:42:54.266Z,7.45
2023-01-07T00:43:56.346Z,7.13
2023-01-07T00:44:57.943Z,5.28
2023-01-07T00:45:59.690Z,6.20
2023-01-07T00:47:01.586Z,6.82
2023-01-07T00:48:04.262Z,6.70
2023-01-07T00:49:05.963Z,6.30
2023-01-07T00:50:07.915Z,6.35
2023-01-07T00:51:09.910Z,6.68
2023-01-07T00:52:11.561Z,5.82
2023-01-07T00:53:13.235Z,5.85
2023-01-07T00:54:14.913Z,5.95
2023-01-07T00:55:17.311Z,6.35
2023-01-07T00:56:19.177Z,6.60
2023-01-07T00:57:20.799Z,6.45
2023-01-07T00:58:24.784Z,6.03
2023-01-07T00:59:27.537Z,6.18
2023-01-07T01:00:29.371Z,7.43
2023-01-07T01:01:31.129Z,4.72
2023-01-07T01:02:32.904Z,6.15
2023-01-07T01:03:34.969Z,5.97
2023-01-07T01:04:37.156Z,6.03
2023-01-07T01:05:39.309Z,6.22
2023-01-07T01:06:40.952Z,5.60
2023-01-07T01:07:42.839Z,6.03
2023-01-07T01:08:45.780Z,7.07
2023-01-07T01:09:47.382Z,6.57
2023-01-07T01:10:48.983Z,6.25
2023-01-07T01:11:50.661Z,5.22
2023-01-07T01:12:52.282Z,6.50
2023-01-07T01:13:53.885Z,6.38
2023-01-07T01:14:55.494Z,7.20
2023-01-07T01:15:57.167Z,5.43
2023-01-07T01:16:58.881Z,6.05
2023-01-07T01:18:00.458Z,6.53
2023-01-07T01:19:02.076Z,5.80
2023-01-07T01:20:04.038Z,6.40
2023-01-07T01:21:07.927Z,6.05
2023-01-07T01:22:09.563Z,6.70
2023-01-07T01:23:11.574Z,6.88
2023-01-07T01:24:13.437Z,7.55
2023-01-07T01:25:15.409Z,6.28
2023-01-07T01:26:17.410Z,7.72
2023-01-07T01:27:19.397Z,6.35
2023-01-07T01:28:20.979Z,6.35
2023-01-07T01:29:22.591Z,6.05
2023-01-07T01:30:24.840Z,6.25
2023-01-07T01:31:26.665Z,6.22
2023-01-07T01:32:29.396Z,7.28
2023-01-07T01:33:31.200Z,7.63
2023-01-07T01:34:32.998Z,6.25
2023-01-07T01:35:34.562Z,8.35
2023-01-07T01:36:37.034Z,6.20
2023-01-07T01:37:38.642Z,6.60
2023-01-07T01:38:41.260Z,6.55
2023-01-07T01:39:43.473Z,6.30
2023-01-07T01:40:45.133Z,6.05
2023-01-07T01:41:47.485Z,8.20
2023-01-07T01:42:49.030Z,5.88
2023-01-07T01:43:52.925Z,5.35
2023-01-07T01:44:56.677Z,6.53
2023-01-07T01:46:21.949Z,6.55
2023-01-07T01:47:42.972Z,5.32
2023-01-07T01:48:49.119Z,5.80
2023-01-07T01:50:10.928Z,5.28
2023-01-07T01:51:13.790Z,6.03
2023-01-07T01:52:21.314Z,5.43
2023-01-07T01:53:34.499Z,5.45
2023-01-07T01:54:36.338Z,5.05
2023-01-07T01:55:42.036Z,5.65
2023-01-07T01:56:45.584Z,5.82
2023-01-07T01:57:48.816Z,5.80
2023-01-07T01:58:56.833Z,5.03
2023-01-07T01:59:58.788Z,6.00
2023-01-07T02:01:01.606Z,6.25
2023-01-07T02:02:07.216Z,5.50
2023-01-07T02:03:12.148Z,6.10
2023-01-07T02:04:16.564Z,5.72
2023-01-07T02:05:18.521Z,6.38
2023-01-07T02:06:25.396Z,5.35
2023-01-07T02:07:28.213Z,5.20
2023-01-07T02:08:32.088Z,5.18
2023-01-07T02:09:37.429Z,5.03
2023-01-07T02:10:40.107Z,5.90
2023-01-07T02:11:54.528Z,5.30
2023-01-07T02:13:20.987Z,5.97
2023-01-07T02:14:47.306Z,7.07
2023-01-07T02:16:07.603Z,5.30
2023-01-07T02:17:23.240Z,6.20
2023-01-07T02:18:45.885Z,5.15
2023-01-07T02:20:05.898Z,4.85
2023-01-07T02:21:48.784Z,5.10
2023-01-07T02:23:16.569Z,5.53
2023-01-07T02:24:51.735Z,5.22
2023-01-07T02:26:23.728Z,5.80
2023-01-07T02:27:30.959Z,5.10
2023-01-07T02:28:59.423Z,5.28
2023-01-07T02:30:25.367Z,4.40
2023-01-07T02:31:57.165Z,4.78
2023-01-07T02:33:01.404Z,5.85
2023-01-07T02:34:05.874Z,4.97
2023-01-07T02:35:16.620Z,4.60
2023-01-07T02:36:32.320Z,5.10
2023-01-07T02:37:53.863Z,4.60
2023-01-07T02:39:05.169Z,4.10
2023-01-07T02:40:32.367Z,4.95
2023-01-07T02:41:39.538Z,5.15
2023-01-07T02:43:06.868Z,4.75
2023-01-07T02:44:23.502Z,5.20
2023-01-07T02:45:29.804Z,5.97
2023-01-07T02:46:44.369Z,5.13
2023-01-07T02:47:55.095Z,5.90
2023-01-07T02:49:10.386Z,5.07
2023-01-07T02:50:12.092Z,4.72
2023-01-07T02:51:13.723Z,4.40
2023-01-07T02:52:41.237Z,6.70
2023-01-07T02:53:45.898Z,4.47
2023-01-07T02:54:57.193Z,5.30
2023-01-07T02:56:09.808Z,4.68
2023-01-07T02:57:14.278Z,5.15
2023-01-07T02:58:42.137Z,5.00
2023-01-07T03:00:08.584Z,4.65
2023-01-07T03:01:35.184Z,5.93
2023-01-07T03:03:06.252Z,5.05
2023-01-07T03:04:22.310Z,4.20
2023-01-07T03:05:44.840Z,5.10
2023-01-07T03:07:04.674Z,4.80
2023-01-07T03:08:34.020Z,5.28
2023-01-07T03:09:51.123Z,4.53
2023-01-07T03:11:05.416Z,4.10
2023-01-07T03:12:36.890Z,4.25
2023-01-07T03:13:49.502Z,4.35
2023-01-07T03:14:59.166Z,5.07
2023-01-07T03:16:06.041Z,5.32
2023-01-07T03:17:09.713Z,5.32
2023-01-07T03:18:44.308Z,4.50
2023-01-07T03:19:49.967Z,4.63
2023-01-07T03:20:54.851Z,4.43
2023-01-07T03:21:57.589Z,4.53
2023-01-07T03:22:59.321Z,4.38
2023-01-07T03:24:01.792Z,4.20
2023-01-07T03:25:05.830Z,5.57
2023-01-07T03:27:09.464Z,3.67
2023-01-07T03:28:12.342Z,5.57
2023-01-07T03:29:15.324Z,4.22
2023-01-07T03:30:19.305Z,4.30
2023-01-07T03:31:22.534Z,4.78
2023-01-07T03:32:32.159Z,5.03
2023-01-07T03:33:41.163Z,5.00
2023-01-07T03:34:43.604Z,3.97
2023-01-07T03:35:47.931Z,4.10
2023-01-07T03:37:00.395Z,4.00
2023-01-07T03:38:03.474Z,4.63
2023-01-07T03:39:07.445Z,4.15
2023-01-07T03:40:11.800Z,3.88
2023-01-07T03:41:33.901Z,4.32
2023-01-07T03:42:42.721Z,4.25
2023-01-07T03:43:50.112Z,4.28
2023-01-07T03:44:52.004Z,4.35
2023-01-07T03:45:55.416Z,4.20
2023-01-07T03:47:58.779Z,4.68
2023-01-07T03:49:06.837Z,4.15
2023-01-07T03:50:10.723Z,4.50
2023-01-07T03:51:15.783Z,4.53
2023-01-07T03:53:19.856Z,5.18
2023-01-07T03:54:24.672Z,4.32
2023-01-07T03:55:26.342Z,3.70
2023-01-07T03:56:30.193Z,3.40
2023-01-07T03:57:33.178Z,3.95
2023-01-07T03:58:36.911Z,3.80
2023-01-07T04:00:41.044Z,4.60
2023-01-07T04:01:49.212Z,5.28
2023-01-07T04:02:51.060Z,3.70
2023-01-07T04:03:57.585Z,4.13
2023-01-07T04:04:59.362Z,4.30
2023-01-07T04:06:00.980Z,4.05
2023-01-07T04:07:03.338Z,5.65
2023-01-07T04:08:05.299Z,5.78
2023-01-07T04:09:12.043Z,4.97
2023-01-07T04:10:13.894Z,4.47
2023-01-07T04:11:16.603Z,5.00
2023-01-07T04:12:18.716Z,4.00
2023-01-07T04:13:20.395Z,4.18
2023-01-07T04:14:24.208Z,4.78
2023-01-07T04:15:25.862Z,3.58
2023-01-07T04:16:27.751Z,5.18
2023-01-07T04:17:30.436Z,4.10
2023-01-07T04:18:32.461Z,4.53
2023-01-07T04:19:34.114Z,5.00
2023-01-07T04:20:35.850Z,5.97
2023-01-07T04:21:37.513Z,4.90
2023-01-07T04:23:43.045Z,3.80
2023-01-07T04:24:45.424Z,5.15
2023-01-07T04:25:49.269Z,4.25
2023-01-07T04:26:54.501Z,5.43
2023-01-07T04:27:56.236Z,4.63
2023-01-07T04:28:58.434Z,3.85
2023-01-07T04:30:02.102Z,4.25
2023-01-07T04:31:08.873Z,4.45
2023-01-07T04:32:11.854Z,3.97
2023-01-07T04:33:13.494Z,3.58
2023-01-07T04:34:15.181Z,4.82
2023-01-07T04:36:19.630Z,4.03
2023-01-07T04:37:22.493Z,3.97
2023-01-07T04:38:24.860Z,4.43
2023-01-07T04:39:28.673Z,4.40
2023-01-07T04:40:31.093Z,4.55
2023-01-07T04:41:33.428Z,4.38
2023-01-07T04:42:35.162Z,4.00
2023-01-07T04:43:37.354Z,4.63
2023-01-07T04:44:40.908Z,4.95
2023-01-07T04:45:42.727Z,4.57
2023-01-07T04:46:44.851Z,4.85
2023-01-07T04:47:46.489Z,5.32
2023-01-07T04:48:48.056Z,5.65
2023-01-07T04:49:49.730Z,4.30
2023-01-07T04:50:51.396Z,4.45
2023-01-07T04:51:53.714Z,4.75
2023-01-07T04:52:55.380Z,4.20
2023-01-07T04:53:58.411Z,5.05
2023-01-07T04:55:00.414Z,4.47
2023-01-07T04:56:02.617Z,4.38
2023-01-07T04:57:04.483Z,3.95
2023-01-07T04:58:06.035Z,4.60
2023-01-07T04:59:07.677Z,4.15
2023-01-07T05:00:10.170Z,5.10
2023-01-07T05:01:12.349Z,5.20
2023-01-07T05:02:14.491Z,5.22
2023-01-07T05:03:16.222Z,4.30
2023-01-07T05:04:18.441Z,3.72
2023-01-07T05:05:21.144Z,3.65
2023-01-07T05:06:23.427Z,4.05
2023-01-07T05:07:25.080Z,4.53
2023-01-07T05:08:27.436Z,4.63
2023-01-07T05:09:29.308Z,4.10
2023-01-07T05:10:31.299Z,3.97
2023-01-07T05:11:32.993Z,4.45
2023-01-07T05:12:35.910Z,4.53
2023-01-07T05:13:38.282Z,5.20
2023-01-07T05:14:40.346Z,4.80
2023-01-07T05:15:41.966Z,4.70
2023-01-07T05:16:43.692Z,4.35
2023-01-07T05:17:45.956Z,4.20
2023-01-07T05:18:48.159Z,4.22
2023-01-07T05:19:49.727Z,4.38
2023-01-07T05:20:51.316Z,4.53
2023-01-07T05:21:54.278Z,3.75
2023-01-07T05:22:56.216Z,4.18
2023-01-07T05:23:58.166Z,4.40
2023-01-07T05:24:59.795Z,4.20
2023-01-07T05:26:02.709Z,3.97
2023-01-07T05:27:06.129Z,4.40
2023-01-07T05:28:09.878Z,4.10
2023-01-07T05:29:13.103Z,4.38
2023-01-07T05:30:16.594Z,4.13
2023-01-07T05:31:20.508Z,4.55
2023-01-07T05:32:22.287Z,4.40
2023-01-07T05:33:25.148Z,4.00
2023-01-07T05:34:27.971Z,3.85
2023-01-07T05:35:29.935Z,4.32
2023-01-07T05:36:31.542Z,3.95
2023-01-07T05:37:33.172Z,3.92
2023-01-07T05:38:34.853Z,4.00
2023-01-07T05:39:36.648Z,4.35
2023-01-07T05:40:41.871Z,3.95
2023-01-07T05:41:43.785Z,5.25
2023-01-07T05:42:45.668Z,3.95
2023-01-07T05:43:47.469Z,4.15
2023-01-07T05:44:49.043Z,3.92
2023-01-07T05:45:50.700Z,4.45
2023-01-07T05:46:52.335Z,3.72
2023-01-07T05:47:53.889Z,3.80
2023-01-07T05:48:55.506Z,4.20
2023-01-07T05:49:57.153Z,4.65
2023-01-07T05:50:58.759Z,4.20
2023-01-07T05:52:00.419Z,4.30
2023-01-07T05:53:02.042Z,3.60
2023-01-07T05:54:04.144Z,4.50
2023-01-07T05:55:06.926Z,4.10
2023-01-07T05:56:08.470Z,3.95
2023-01-07T05:57:11.265Z,4.55
2023-01-07T05:58:13.043Z,3.63
2023-01-07T05:59:14.727Z,3.38
2023-01-07T06:00:16.841Z,3.60
2023-01-07T06:01:18.514Z,3.40
2023-01-07T06:02:20.354Z,3.90
2023-01-07T06:03:22.412Z,3.35
2023-01-07T06:04:23.957Z,4.05
2023-01-07T06:05:25.604Z,3.75
2023-01-07T06:06:27.126Z,3.80
2023-01-07T06:07:28.678Z,3.85
2023-01-07T06:08:30.227Z,3.88
2023-01-07T06:09:31.892Z,4.00
2023-01-07T06:10:33.717Z,4.70
2023-01-07T06:11:35.304Z,4.40
2023-01-07T06:12:36.961Z,4.03
2023-01-07T06:13:38.548Z,4.53
2023-01-07T06:14:40.153Z,4.88
2023-01-07T06:15:41.826Z,5.70
2023-01-07T06:16:43.467Z,5.03
2023-01-07T06:17:45.357Z,4.38
2023-01-07T06:18:46.961Z,5.43
2023-01-07T06:19:48.660Z,4.63
2023-01-07T06:20:50.945Z,5.45
2023-01-07T06:21:52.559Z,5.57
2023-01-07T06:22:54.394Z,4.97
2023-01-07T06:23:56.326Z,4.68
2023-01-07T06:24:57.849Z,3.47
2023-01-07T06:25:59.732Z,3.80
2023-01-07T06:27:01.360Z,5.18
2023-01-07T06:28:02.958Z,4.88
2023-01-07T06:29:04.623Z,4.18
2023-01-07T06:30:10.813Z,4.80
2023-01-07T06:31:12.522Z,4.88
2023-01-07T06:32:14.151Z,5.03
2023-01-07T06:33:16.316Z,5.20
2023-01-07T06:34:18.023Z,4.78
2023-01-07T06:35:19.685Z,4.35
2023-01-07T06:36:21.254Z,4.45
2023-01-07T06:37:22.852Z,4.88
2023-01-07T06:38:24.504Z,4.10
2023-01-07T06:39:26.207Z,3.88
2023-01-07T06:40:27.882Z,6.43
2023-01-07T06:41:29.558Z,3.83
2023-01-07T06:42:31.200Z,4.32
2023-01-07T06:43:32.807Z,4.93
2023-01-07T06:44:34.649Z,4.15
2023-01-07T06:45:36.319Z,4.53
2023-01-07T06:46:37.934Z,4.38
2023-01-07T06:47:39.584Z,5.82
2023-01-07T06:48:41.167Z,5.38
2023-01-07T06:49:42.810Z,4.53
2023-01-07T06:50:44.842Z,4.10
2023-01-07T06:51:46.535Z,4.78
2023-01-07T06:52:48.369Z,3.80
2023-01-07T06:53:49.956Z,5.28
2023-01-07T06:54:51.571Z,4.45
2023-01-07T06:55:53.191Z,4.47
2023-01-07T06:56:54.760Z,4.55
2023-01-07T06:57:56.300Z,5.25
2023-01-07T06:58:57.866Z,4.85
2023-01-07T06:59:59.480Z,4.80
2023-01-07T07:01:09.926Z,5.07
2023-01-07T07:02:20.364Z,3.97
2023-01-07T07:03:21.986Z,5.07
2023-01-07T07:04:23.590Z,4.75
2023-01-07T07:05:25.393Z,4.63
2023-01-07T07:06:27.166Z,6.47
2023-01-07T07:07:28.751Z,7.60
2023-01-07T07:08:30.443Z,4.90
2023-01-07T07:09:32.066Z,5.72
2023-01-07T07:10:33.725Z,5.68
2023-01-07T07:11:35.350Z,4.95
2023-01-07T07:12:38.233Z,4.85
2023-01-07T07:13:39.935Z,4.32
2023-01-07T07:14:41.599Z,3.90
2023-01-07T07:15:43.295Z,4.35
2023-01-07T07:16:44.930Z,4.15
2023-01-07T07:17:46.858Z,4.85
2023-01-07T07:18:48.540Z,4.30
2023-01-07T07:19:50.158Z,5.13
2023-01-07T07:20:51.756Z,4.28
2023-01-07T07:21:53.371Z,4.25
2023-01-07T07:22:54.934Z,5.03
2023-01-07T07:23:56.509Z,4.22
2023-01-07T07:24:58.090Z,3.83
2023-01-07T07:25:59.751Z,4.43
2023-01-07T07:27:01.356Z,4.88
2023-01-07T07:28:03.113Z,3.90
2023-01-07T07:29:04.772Z,4.38
2023-01-07T07:30:08.174Z,3.78
2023-01-07T07:31:09.968Z,3.90
2023-01-07T07:32:11.614Z,5.43
2023-01-07T07:33:14.906Z,4.30
2023-01-07T07:34:16.595Z,4.05
2023-01-07T07:35:18.355Z,5.65
2023-01-07T07:36:20.038Z,4.43
2023-01-07T07:37:22.036Z,4.53
2023-01-07T07:38:23.631Z,4.63
2023-01-07T07:39:25.278Z,4.65
2023-01-07T07:40:27.592Z,5.93
2023-01-07T07:41:30.726Z,5.30
2023-01-07T07:43:11.556Z,4.45
2023-01-07T07:43:56.936Z,5.22
2023-01-07T07:44:58.540Z,4.72
2023-01-07T07:46:00.150Z,4.28
2023-01-07T07:47:01.740Z,3.92
2023-01-07T07:48:05.933Z,3.90
2023-01-07T07:49:07.520Z,3.63
2023-01-07T07:50:09.207Z,4.68
2023-01-07T07:51:10.844Z,6.15
2023-01-07T07:52:12.519Z,3.75
2023-01-07T07:53:15.191Z,4.15
2023-01-07T07:54:16.813Z,3.55
2023-01-07T07:55:20.109Z,3.92
2023-01-07T07:56:27.777Z,3.20
2023-01-07T07:57:29.489Z,4.10
2023-01-07T07:58:31.130Z,3.72
2023-01-07T07:59:32.795Z,4.38
2023-01-07T08:00:34.524Z,4.70
2023-01-07T08:01:37.435Z,3.75
2023-01-07T08:02:39.334Z,4.10
2023-01-07T08:03:41.188Z,4.85
2023-01-07T08:04:42.932Z,4.78
2023-01-07T08:05:45.311Z,6.60
2023-01-07T08:06:46.899Z,6.50
2023-01-07T08:07:48.510Z,6.95
2023-01-07T08:08:50.116Z,6.93
2023-01-07T08:09:51.878Z,5.70
2023-01-07T08:10:55.925Z,4.15
2023-01-07T08:11:57.592Z,5.32
2023-01-07T08:12:59.310Z,6.05
2023-01-07T08:14:00.944Z,6.45
2023-01-07T08:15:02.615Z,5.07
2023-01-07T08:16:04.496Z,6.32
2023-01-07T08:17:06.191Z,8.60
2023-01-07T08:18:09.281Z,9.77
2023-01-07T08:19:11.273Z,8.57
2023-01-07T08:20:13.019Z,7.38
2023-01-07T08:21:14.615Z,7.10
2023-01-07T08:22:16.241Z,6.18
2023-01-07T08:23:17.869Z,6.70
2023-01-07T08:24:19.483Z,6.45
2023-01-07T08:25:21.107Z,4.82
2023-01-07T08:26:22.736Z,4.28
2023-01-07T08:27:24.409Z,5.05
2023-01-07T08:28:26.005Z,4.32
2023-01-07T08:29:27.586Z,5.32
2023-01-07T08:30:30.214Z,4.97
2023-01-07T08:32:33.537Z,4.75
2023-01-07T08:33:37.699Z,4.60
2023-01-07T08:34:39.425Z,5.18
2023-01-07T08:35:41.032Z,4.95
2023-01-07T08:36:42.672Z,4.97
2023-01-07T08:37:44.657Z,4.00
2023-01-07T08:38:50.697Z,4.68
2023-01-07T08:39:52.363Z,4.03
2023-01-07T08:40:53.925Z,4.53
2023-01-07T08:41:55.558Z,5.03
2023-01-07T08:43:01.004Z,4.18
2023-01-07T08:44:02.543Z,5.43
2023-01-07T08:45:04.825Z,4.10
2023-01-07T08:46:06.421Z,6.18
2023-01-07T08:47:08.062Z,5.40
2023-01-07T08:48:09.639Z,5.45
2023-01-07T08:49:11.539Z,6.40
2023-01-07T08:50:13.156Z,5.65
2023-01-07T08:51:14.833Z,4.63
2023-01-07T08:52:16.457Z,7.63
2023-01-07T08:53:23.547Z,5.53
2023-01-07T08:54:25.160Z,7.07
2023-01-07T08:55:26.845Z,6.07
2023-01-07T08:56:28.589Z,6.05
2023-01-07T08:57:30.247Z,6.15
2023-01-07T08:58:31.850Z,5.80
2023-01-07T08:59:33.494Z,5.82
2023-01-07T09:00:35.202Z,6.78
2023-01-07T09:01:37.057Z,5.90
2023-01-07T09:02:38.913Z,5.75
2023-01-07T09:03:40.583Z,5.88
2023-01-07T09:04:42.339Z,3.78
2023-01-07T09:05:45.964Z,5.35
2023-01-07T09:06:47.567Z,4.43
2023-01-07T09:07:52.163Z,4.10
2023-01-07T09:08:53.790Z,4.82
2023-01-07T09:09:55.376Z,4.78
2023-01-07T09:10:57.011Z,3.08
2023-01-07T09:11:58.641Z,3.20
2023-01-07T09:13:00.305Z,3.28
2023-01-07T09:14:02.013Z,3.50
2023-01-07T09:15:04.003Z,3.60
2023-01-07T09:16:06.026Z,3.47
2023-01-07T09:17:07.759Z,3.15
2023-01-07T09:18:09.402Z,4.53
2023-01-07T09:19:11.049Z,2.90
2023-01-07T09:20:12.633Z,4.30
2023-01-07T09:21:14.270Z,3.90
2023-01-07T09:22:15.852Z,3.50
2023-01-07T09:23:17.693Z,3.42
2023-01-07T09:24:19.329Z,3.92
2023-01-07T09:25:20.969Z,3.20
2023-01-07T09:26:22.607Z,4.22
2023-01-07T09:27:24.318Z,3.58
2023-01-07T09:28:25.864Z,3.22
2023-01-07T09:29:27.533Z,3.45
2023-01-07T09:30:29.143Z,3.17
2023-01-07T09:31:30.835Z,3.13
2023-01-07T09:32:32.514Z,3.10
2023-01-07T09:33:34.430Z,4.85
2023-01-07T09:34:36.062Z,3.05
2023-01-07T09:35:37.626Z,3.67
2023-01-07T09:36:39.395Z,3.20
2023-01-07T09:37:41.323Z,3.97
2023-01-07T09:38:42.907Z,3.08
2023-01-07T09:39:44.602Z,5.03
2023-01-07T09:40:46.235Z,4.13
2023-01-07T09:42:13.635Z,3.00
2023-01-07T09:43:20.936Z,3.22
2023-01-07T09:44:40.824Z,2.97
2023-01-07T09:45:45.905Z,3.65
2023-01-07T09:46:48.286Z,3.15
2023-01-07T09:47:52.916Z,3.05
2023-01-07T09:48:58.500Z,2.40
2023-01-07T09:50:23.302Z,3.72
2023-01-07T09:51:38.060Z,3.63
2023-01-07T09:52:44.717Z,3.53
2023-01-07T09:53:48.913Z,3.88
2023-01-07T09:54:53.831Z,2.90
2023-01-07T09:56:11.791Z,3.45
2023-01-07T09:57:16.608Z,4.50
2023-01-07T09:58:19.573Z,2.90
2023-01-07T09:59:21.124Z,3.65
2023-01-07T10:00:24.472Z,3.22
2023-01-07T10:01:26.039Z,3.28
2023-01-07T10:02:45.172Z,3.50
2023-01-07T10:03:46.813Z,3.70
2023-01-07T10:05:02.129Z,3.38
2023-01-07T10:06:42.772Z,3.08
2023-01-07T10:08:30.084Z,3.28
2023-01-07T10:10:11.108Z,3.50
2023-01-07T10:12:43.923Z,3.60
2023-01-07T10:13:53.130Z,2.78
2023-01-07T10:15:03.791Z,2.97
2023-01-07T10:16:28.229Z,3.33
2023-01-07T10:17:51.362Z,2.83
2023-01-07T10:19:08.588Z,3.10
2023-01-07T10:20:41.005Z,2.75
2023-01-07T10:21:53.739Z,3.63
2023-01-07T10:23:02.684Z,3.22
2023-01-07T10:24:29.032Z,3.38
2023-01-07T10:25:46.026Z,2.75
2023-01-07T10:26:50.522Z,3.03
2023-01-07T10:27:53.659Z,3.15
2023-01-07T10:28:58.896Z,2.67
2023-01-07T10:30:06.137Z,3.13
2023-01-07T10:31:15.947Z,2.88
2023-01-07T10:32:20.853Z,2.90
2023-01-07T10:33:29.816Z,2.92
2023-01-07T10:34:36.311Z,2.95
2023-01-07T10:35:40.033Z,3.05
2023-01-07T10:36:53.395Z,2.78
2023-01-07T10:37:58.320Z,3.63
2023-01-07T10:39:18.228Z,2.85
2023-01-07T10:40:41.917Z,2.78
2023-01-07T10:42:01.098Z,2.40
2023-01-07T10:43:22.567Z,2.75
2023-01-07T10:44:42.464Z,2.97
2023-01-07T10:45:50.709Z,2.83
2023-01-07T10:47:39.958Z,2.35
2023-01-07T10:48:41.475Z,2.55
2023-01-07T10:50:07.710Z,2.78
2023-01-07T10:51:31.147Z,2.33
2023-01-07T10:52:41.464Z,2.75
2023-01-07T10:54:07.697Z,2.65
2023-01-07T10:55:44.863Z,2.95
2023-01-07T10:56:54.575Z,2.10
2023-01-07T10:57:56.402Z,2.58
2023-01-07T10:58:58.276Z,2.60
2023-01-07T11:00:05.289Z,2.55
2023-01-07T11:01:07.987Z,2.40
2023-01-07T11:02:16.239Z,2.50
2023-01-07T11:03:24.765Z,2.30
2023-01-07T11:04:26.600Z,2.35
2023-01-07T11:05:34.846Z,2.25
2023-01-07T11:06:59.294Z,3.47
2023-01-07T11:08:04.292Z,2.30
2023-01-07T11:09:09.855Z,2.38
2023-01-07T11:10:36.123Z,2.47
2023-01-07T11:11:38.136Z,2.55
2023-01-07T11:12:40.840Z,2.90
2023-01-07T11:13:43.469Z,2.35
2023-01-07T11:14:46.724Z,2.40
2023-01-07T11:15:55.006Z,2.88
2023-01-07T11:17:08.780Z,2.67
2023-01-07T11:18:33.419Z,2.40
2023-01-07T11:20:01.281Z,2.45
2023-01-07T11:21:02.998Z,2.85
2023-01-07T11:22:28.177Z,2.05
2023-01-07T11:23:37.523Z,2.60
2023-01-07T11:24:39.188Z,2.42
2023-01-07T11:25:41.150Z,3.70
2023-01-07T11:26:42.791Z,5.90
2023-01-07T11:27:45.392Z,3.13
2023-01-07T11:28:51.812Z,4.97
2023-01-07T11:30:00.608Z,3.10
2023-01-07T11:31:02.534Z,3.65
2023-01-07T11:32:05.655Z,3.10
2023-01-07T11:33:07.566Z,3.00
2023-01-07T11:34:28.048Z,3.85
2023-01-07T11:35:29.609Z,3.67
2023-01-07T11:36:42.117Z,3.38
2023-01-07T11:37:47.457Z,3.58
2023-01-07T11:38:49.057Z,3.25
2023-01-07T11:39:58.893Z,2.53
2023-01-07T11:41:01.096Z,3.42
2023-01-07T11:42:37.268Z,2.83
2023-01-07T11:43:39.570Z,2.55
2023-01-07T11:44:41.173Z,3.20
2023-01-07T11:46:19.242Z,3.22
2023-01-07T11:47:17.486Z,3.05
2023-01-07T11:48:31.941Z,2.42
2023-01-07T11:49:41.154Z,2.50
2023-01-07T11:51:00.243Z,2.80
2023-01-07T11:52:01.881Z,2.92
2023-01-07T11:53:09.454Z,3.05
2023-01-07T11:54:21.237Z,4.20
2023-01-07T11:55:23.242Z,2.65
2023-01-07T11:56:33.519Z,3.67
2023-01-07T11:57:35.173Z,3.03
2023-01-07T11:58:45.002Z,2.30
2023-01-07T11:59:46.630Z,2.83
2023-01-07T12:01:19.367Z,2.72
2023-01-07T12:03:26.638Z,2.80
2023-01-07T12:04:40.243Z,3.25
2023-01-07T12:05:45.080Z,3.00
2023-01-07T12:06:48.572Z,2.75
2023-01-07T12:07:51.174Z,3.67
2023-01-07T12:08:55.811Z,3.70
2023-01-07T12:09:57.400Z,2.70
2023-01-07T12:11:09.053Z,4.82
2023-01-07T12:12:34.167Z,4.60
2023-01-07T12:13:36.590Z,3.28
2023-01-07T12:14:38.963Z,3.55
2023-01-07T12:15:50.047Z,3.53
2023-01-07T12:16:51.984Z,3.03
2023-01-07T12:18:19.619Z,2.90
2023-01-07T12:19:34.214Z,3.25
2023-01-07T12:20:51.696Z,2.83
2023-01-07T12:22:02.239Z,5.03
2023-01-07T12:23:09.865Z,4.78
2023-01-07T12:24:37.590Z,4.80
2023-01-07T12:25:59.688Z,3.90
2023-01-07T12:27:27.690Z,2.90
2023-01-07T12:28:44.704Z,2.65
2023-01-07T12:29:58.250Z,2.78
2023-01-07T12:31:09.407Z,5.15
2023-01-07T12:32:13.541Z,2.92
2023-01-07T12:33:36.452Z,2.97
2023-01-07T12:34:48.407Z,3.40
2023-01-07T12:35:50.555Z,3.15
2023-01-07T12:37:01.849Z,3.10
2023-01-07T12:38:09.305Z,3.58
2023-01-07T12:39:33.086Z,4.45
2023-01-07T12:40:41.745Z,2.83
2023-01-07T12:41:45.920Z,2.92
2023-01-07T12:43:01.445Z,3.33
2023-01-07T12:44:07.321Z,3.33
2023-01-07T12:45:42.112Z,2.80
2023-01-07T12:47:31.836Z,3.60
2023-01-07T12:48:36.905Z,3.13
2023-01-07T12:49:58.068Z,3.22
2023-01-07T12:51:00.059Z,3.22
2023-01-07T12:52:33.941Z,3.55
2023-01-07T12:53:51.450Z,3.03
2023-01-07T12:54:59.686Z,3.10
2023-01-07T12:56:06.967Z,3.00
2023-01-07T12:57:38.140Z,3.15
2023-01-07T12:59:02.112Z,3.60
2023-01-07T13:00:08.375Z,2.90
2023-01-07T13:01:37.073Z,3.05
2023-01-07T13:03:07.707Z,3.72
2023-01-07T13:04:21.428Z,3.10
2023-01-07T13:05:29.159Z,4.25
2023-01-07T13:06:33.335Z,4.05
2023-01-07T13:07:46.150Z,3.83
2023-01-07T13:08:57.295Z,2.97
2023-01-07T13:10:02.434Z,3.17
2023-01-07T13:11:14.437Z,5.25
2023-01-07T13:12:43.052Z,4.03
2023-01-07T13:13:49.698Z,3.45
2023-01-07T13:14:53.628Z,3.80
2023-01-07T13:15:56.838Z,4.75
2023-01-07T13:17:06.699Z,4.25
2023-01-07T13:18:10.995Z,3.72
2023-01-07T13:19:12.764Z,4.18
2023-01-07T13:20:16.078Z,3.70
2023-01-07T13:21:18.423Z,3.92
2023-01-07T13:22:35.344Z,3.67
2023-01-07T13:24:07.374Z,3.38
2023-01-07T13:25:32.856Z,3.10
2023-01-07T13:26:52.262Z,3.20
2023-01-07T13:27:56.598Z,3.35
2023-01-07T13:29:07.436Z,4.30
2023-01-07T13:30:28.560Z,3.67
2023-01-07T13:31:36.203Z,3.72
2023-01-07T13:32:56.611Z,3.40
2023-01-07T13:34:37.543Z,3.65
2023-01-07T13:35:57.475Z,3.10
2023-01-07T13:37:33.492Z,4.00
2023-01-07T13:39:05.110Z,3.40
2023-01-07T13:40:34.353Z,3.03
2023-01-07T13:42:06.814Z,3.25
2023-01-07T13:43:39.269Z,3.10
2023-01-07T13:44:52.486Z,3.25
2023-01-07T13:46:03.693Z,3.22
2023-01-07T13:47:05.567Z,3.15
2023-01-07T13:48:19.639Z,3.85
2023-01-07T13:49:30.004Z,3.13
2023-01-07T13:50:54.229Z,3.35
2023-01-07T13:51:57.022Z,3.17
2023-01-07T13:53:01.987Z,3.00
2023-01-07T13:54:04.147Z,3.30
2023-01-07T13:55:40.684Z,2.88
2023-01-07T13:56:42.465Z,2.70
2023-01-07T13:57:44.866Z,3.28
2023-01-07T13:58:53.231Z,2.90
2023-01-07T13:59:58.576Z,4.47
2023-01-07T14:01:03.233Z,3.03
2023-01-07T14:02:19.041Z,3.15
2023-01-07T14:03:33.090Z,3.55
2023-01-07T14:04:35.805Z,3.92
2023-01-07T14:05:37.456Z,4.05
2023-01-07T14:06:42.600Z,3.33
2023-01-07T14:07:48.669Z,3.90
2023-01-07T14:09:15.987Z,3.42
2023-01-07T14:10:24.328Z,3.67
2023-01-07T14:11:44.370Z,3.63
2023-01-07T14:13:00.922Z,3.47
2023-01-07T14:14:20.740Z,3.75
2023-01-07T14:15:46.247Z,3.08
2023-01-07T14:16:59.899Z,4.38
2023-01-07T14:18:31.116Z,3.60
2023-01-07T14:19:48.031Z,3.17
2023-01-07T14:20:55.293Z,3.75
2023-01-07T14:22:26.467Z,3.17
2023-01-07T14:23:40.765Z,3.88
2023-01-07T14:24:48.425Z,4.78
2023-01-07T14:26:24.038Z,3.45
2023-01-07T14:27:44.205Z,3.47
2023-01-07T14:29:04.257Z,3.00
2023-01-07T14:30:20.525Z,3.42
2023-01-07T14:31:27.654Z,3.50
2023-01-07T14:32:37.567Z,3.10
2023-01-07T14:33:46.702Z,3.30
2023-01-07T14:35:01.186Z,3.15
2023-01-07T14:36:08.288Z,3.28
2023-01-07T14:37:29.528Z,4.03
2023-01-07T14:38:33.988Z,3.42
2023-01-07T14:39:39.229Z,3.33
2023-01-07T14:40:40.836Z,2.50
2023-01-07T14:42:24.966Z,3.50
2023-01-07T14:43:51.504Z,2.80
2023-01-07T14:44:53.062Z,3.30
2023-01-07T14:45:54.935Z,3.55
2023-01-07T14:46:56.580Z,3.75
2023-01-07T14:47:58.311Z,4.22
2023-01-07T14:49:03.069Z,3.33
2023-01-07T14:50:23.689Z,5.00
2023-01-07T14:51:46.524Z,3.72
2023-01-07T14:53:17.285Z,3.95
2023-01-07T14:54:21.437Z,4.43
2023-01-07T14:55:34.332Z,3.88
2023-01-07T14:56:41.571Z,3.92
2023-01-07T14:57:57.530Z,4.68
2023-01-07T14:59:24.313Z,4.28
2023-01-07T15:02:25.037Z,3.38
2023-01-07T15:04:04.182Z,2.92
2023-01-07T15:05:17.982Z,4.57
2023-01-07T15:06:31.421Z,3.22